sensor_id;sensor_type;location;lat;lon;timestamp;temperature;humidity
25440;DHT22;13365;52.208;5.488;2022-11-20T00:01:12;3.00;82.60
25440;DHT22;13365;52.208;5.488;2022-11-20T00:03:38;3.20;83.00
25440;DHT22;13365;52.208;5.488;2022-11-20T00:06:10;3.10;82.90
25440;DHT22;13365;52.208;5.488;2022-11-20T00:08:36;3.20;82.80
25440;DHT22;13365;52.208;5.488;2022-11-20T00:11:04;3.30;82.50
25440;DHT22;13365;52.208;5.488;2022-11-20T00:13:29;3.30;82.40
25440;DHT22;13365;52.208;5.488;2022-11-20T00:15:59;3.40;82.30
25440;DHT22;13365;52.208;5.488;2022-11-20T00:18:25;3.40;82.10
25440;DHT22;13365;52.208;5.488;2022-11-20T00:20:51;3.30;82.10
25440;DHT22;13365;52.208;5.488;2022-11-20T00:23:16;3.10;82.00
25440;DHT22;13365;52.208;5.488;2022-11-20T00:25:42;3.30;82.10
25440;DHT22;13365;52.208;5.488;2022-11-20T00:28:07;3.20;81.80
25440;DHT22;13365;52.208;5.488;2022-11-20T00:30:33;3.30;81.80
25440;DHT22;13365;52.208;5.488;2022-11-20T00:32:58;3.20;81.60
25440;DHT22;13365;52.208;5.488;2022-11-20T00:35:24;3.10;81.40
25440;DHT22;13365;52.208;5.488;2022-11-20T00:37:49;3.20;81.70
25440;DHT22;13365;52.208;5.488;2022-11-20T00:40:15;3.30;81.60
25440;DHT22;13365;52.208;5.488;2022-11-20T00:42:40;3.10;81.40
25440;DHT22;13365;52.208;5.488;2022-11-20T00:45:06;3.20;81.80
25440;DHT22;13365;52.208;5.488;2022-11-20T00:47:32;3.20;81.50
25440;DHT22;13365;52.208;5.488;2022-11-20T00:49:57;3.10;81.10
25440;DHT22;13365;52.208;5.488;2022-11-20T00:52:23;3.10;81.20
25440;DHT22;13365;52.208;5.488;2022-11-20T00:54:48;3.00;81.30
25440;DHT22;13365;52.208;5.488;2022-11-20T00:57:14;3.00;81.20
25440;DHT22;13365;52.208;5.488;2022-11-20T00:59:39;3.00;81.10
25440;DHT22;13365;52.208;5.488;2022-11-20T01:02:05;3.00;81.10
25440;DHT22;13365;52.208;5.488;2022-11-20T01:04:30;3.00;81.10
25440;DHT22;13365;52.208;5.488;2022-11-20T01:06:56;2.80;81.50
25440;DHT22;13365;52.208;5.488;2022-11-20T01:09:21;2.90;82.00
25440;DHT22;13365;52.208;5.488;2022-11-20T01:11:47;2.80;81.90
25440;DHT22;13365;52.208;5.488;2022-11-20T01:14:18;2.60;82.40
25440;DHT22;13365;52.208;5.488;2022-11-20T01:16:46;2.40;83.00
25440;DHT22;13365;52.208;5.488;2022-11-20T01:19:14;2.40;83.90
25440;DHT22;13365;52.208;5.488;2022-11-20T01:21:42;2.40;84.00
25440;DHT22;13365;52.208;5.488;2022-11-20T01:24:10;2.70;84.00
25440;DHT22;13365;52.208;5.488;2022-11-20T01:26:39;2.60;83.30
25440;DHT22;13365;52.208;5.488;2022-11-20T01:29:06;2.60;83.40
25440;DHT22;13365;52.208;5.488;2022-11-20T01:31:34;2.70;83.20
25440;DHT22;13365;52.208;5.488;2022-11-20T01:34:02;2.80;82.90
25440;DHT22;13365;52.208;5.488;2022-11-20T01:36:30;2.90;82.60
25440;DHT22;13365;52.208;5.488;2022-11-20T01:39:00;2.90;82.20
25440;DHT22;13365;52.208;5.488;2022-11-20T01:41:28;3.00;82.10
25440;DHT22;13365;52.208;5.488;2022-11-20T01:44:17;3.00;81.80
25440;DHT22;13365;52.208;5.488;2022-11-20T01:46:59;2.90;81.80
25440;DHT22;13365;52.208;5.488;2022-11-20T01:49:40;2.80;82.00
25440;DHT22;13365;52.208;5.488;2022-11-20T01:52:23;2.80;82.00
25440;DHT22;13365;52.208;5.488;2022-11-20T01:54:57;2.90;82.00
25440;DHT22;13365;52.208;5.488;2022-11-20T01:57:25;2.70;81.90
25440;DHT22;13365;52.208;5.488;2022-11-20T02:00:14;2.70;82.00
25440;DHT22;13365;52.208;5.488;2022-11-20T02:02:44;2.70;82.10
25440;DHT22;13365;52.208;5.488;2022-11-20T02:05:20;2.70;82.00
25440;DHT22;13365;52.208;5.488;2022-11-20T02:07:48;2.60;82.10
25440;DHT22;13365;52.208;5.488;2022-11-20T02:10:14;2.70;82.00
25440;DHT22;13365;52.208;5.488;2022-11-20T02:12:40;2.70;81.60
25440;DHT22;13365;52.208;5.488;2022-11-20T02:15:24;2.60;81.30
25440;DHT22;13365;52.208;5.488;2022-11-20T02:17:50;2.60;81.50
25440;DHT22;13365;52.208;5.488;2022-11-20T02:20:15;2.50;81.50
25440;DHT22;13365;52.208;5.488;2022-11-20T02:22:58;2.50;81.80
25440;DHT22;13365;52.208;5.488;2022-11-20T02:25:24;2.40;83.00
25440;DHT22;13365;52.208;5.488;2022-11-20T02:27:51;2.40;82.30
25440;DHT22;13365;52.208;5.488;2022-11-20T02:30:17;2.50;82.40
25440;DHT22;13365;52.208;5.488;2022-11-20T02:32:43;2.40;81.90
25440;DHT22;13365;52.208;5.488;2022-11-20T02:37:43;2.50;81.80
25440;DHT22;13365;52.208;5.488;2022-11-20T02:40:09;2.60;81.50
25440;DHT22;13365;52.208;5.488;2022-11-20T02:42:36;2.60;81.40
25440;DHT22;13365;52.208;5.488;2022-11-20T02:45:03;2.50;81.50
25440;DHT22;13365;52.208;5.488;2022-11-20T02:47:29;2.50;81.40
25440;DHT22;13365;52.208;5.488;2022-11-20T02:49:54;2.40;81.10
25440;DHT22;13365;52.208;5.488;2022-11-20T02:52:20;2.30;81.10
25440;DHT22;13365;52.208;5.488;2022-11-20T02:54:45;1.90;81.60
25440;DHT22;13365;52.208;5.488;2022-11-20T02:57:11;2.10;82.60
25440;DHT22;13365;52.208;5.488;2022-11-20T02:59:36;2.20;82.60
25440;DHT22;13365;52.208;5.488;2022-11-20T03:02:02;2.30;82.30
25440;DHT22;13365;52.208;5.488;2022-11-20T03:04:27;2.20;82.00
25440;DHT22;13365;52.208;5.488;2022-11-20T03:06:53;2.20;81.90
25440;DHT22;13365;52.208;5.488;2022-11-20T03:09:18;2.20;82.10
25440;DHT22;13365;52.208;5.488;2022-11-20T03:11:44;2.20;81.70
25440;DHT22;13365;52.208;5.488;2022-11-20T03:14:09;2.10;81.80
25440;DHT22;13365;52.208;5.488;2022-11-20T03:16:35;2.30;81.70
25440;DHT22;13365;52.208;5.488;2022-11-20T03:19:00;2.30;81.20
25440;DHT22;13365;52.208;5.488;2022-11-20T03:21:26;2.10;81.30
25440;DHT22;13365;52.208;5.488;2022-11-20T03:23:53;2.00;81.90
25440;DHT22;13365;52.208;5.488;2022-11-20T03:26:22;2.00;83.10
25440;DHT22;13365;52.208;5.488;2022-11-20T03:28:51;2.10;82.20
25440;DHT22;13365;52.208;5.488;2022-11-20T03:31:19;2.10;82.00
25440;DHT22;13365;52.208;5.488;2022-11-20T03:33:44;2.10;81.70
25440;DHT22;13365;52.208;5.488;2022-11-20T03:36:15;2.10;81.60
25440;DHT22;13365;52.208;5.488;2022-11-20T03:38:41;2.20;82.00
25440;DHT22;13365;52.208;5.488;2022-11-20T03:41:09;2.10;81.70
25440;DHT22;13365;52.208;5.488;2022-11-20T03:43:35;2.20;81.80
25440;DHT22;13365;52.208;5.488;2022-11-20T03:46:01;2.30;81.60
25440;DHT22;13365;52.208;5.488;2022-11-20T03:48:27;2.30;81.20
25440;DHT22;13365;52.208;5.488;2022-11-20T03:51:06;2.20;80.60
25440;DHT22;13365;52.208;5.488;2022-11-20T03:53:32;2.20;80.50
25440;DHT22;13365;52.208;5.488;2022-11-20T03:55:57;2.10;80.40
25440;DHT22;13365;52.208;5.488;2022-11-20T03:58:23;2.10;80.50
25440;DHT22;13365;52.208;5.488;2022-11-20T04:00:48;2.00;80.60
25440;DHT22;13365;52.208;5.488;2022-11-20T04:03:14;2.00;80.60
25440;DHT22;13365;52.208;5.488;2022-11-20T04:05:39;2.00;80.80
25440;DHT22;13365;52.208;5.488;2022-11-20T04:08:05;2.10;80.80
25440;DHT22;13365;52.208;5.488;2022-11-20T04:10:30;2.10;80.70
25440;DHT22;13365;52.208;5.488;2022-11-20T04:12:56;2.00;80.50
25440;DHT22;13365;52.208;5.488;2022-11-20T04:15:21;2.00;80.50
25440;DHT22;13365;52.208;5.488;2022-11-20T04:17:47;2.00;80.50
25440;DHT22;13365;52.208;5.488;2022-11-20T04:20:12;2.00;80.50
25440;DHT22;13365;52.208;5.488;2022-11-20T04:22:38;2.10;80.60
25440;DHT22;13365;52.208;5.488;2022-11-20T04:25:04;2.10;80.40
25440;DHT22;13365;52.208;5.488;2022-11-20T04:27:30;2.10;80.20
25440;DHT22;13365;52.208;5.488;2022-11-20T04:29:56;2.00;80.00
25440;DHT22;13365;52.208;5.488;2022-11-20T04:32:21;1.90;80.20
25440;DHT22;13365;52.208;5.488;2022-11-20T04:34:47;1.90;80.00
25440;DHT22;13365;52.208;5.488;2022-11-20T04:37:12;1.70;80.40
25440;DHT22;13365;52.208;5.488;2022-11-20T04:39:38;1.70;80.60
25440;DHT22;13365;52.208;5.488;2022-11-20T04:42:03;1.80;80.70
25440;DHT22;13365;52.208;5.488;2022-11-20T04:44:47;1.80;80.50
25440;DHT22;13365;52.208;5.488;2022-11-20T04:47:13;1.80;80.40
25440;DHT22;13365;52.208;5.488;2022-11-20T04:49:38;1.90;80.40
25440;DHT22;13365;52.208;5.488;2022-11-20T04:52:04;1.80;80.30
25440;DHT22;13365;52.208;5.488;2022-11-20T04:54:29;1.80;80.30
25440;DHT22;13365;52.208;5.488;2022-11-20T04:56:55;1.80;80.20
25440;DHT22;13365;52.208;5.488;2022-11-20T04:59:20;1.70;80.20
25440;DHT22;13365;52.208;5.488;2022-11-20T05:01:46;1.60;80.30
25440;DHT22;13365;52.208;5.488;2022-11-20T05:04:12;1.60;81.10
25440;DHT22;13365;52.208;5.488;2022-11-20T05:06:37;1.80;81.00
25440;DHT22;13365;52.208;5.488;2022-11-20T05:09:03;1.80;80.50
25440;DHT22;13365;52.208;5.488;2022-11-20T05:11:28;1.80;80.20
25440;DHT22;13365;52.208;5.488;2022-11-20T05:13:54;1.90;80.80
25440;DHT22;13365;52.208;5.488;2022-11-20T05:16:24;2.00;80.90
25440;DHT22;13365;52.208;5.488;2022-11-20T05:18:51;1.90;81.00
25440;DHT22;13365;52.208;5.488;2022-11-20T05:21:17;1.80;81.10
25440;DHT22;13365;52.208;5.488;2022-11-20T05:23:43;1.80;81.00
25440;DHT22;13365;52.208;5.488;2022-11-20T05:26:19;1.90;81.00
25440;DHT22;13365;52.208;5.488;2022-11-20T05:28:45;1.90;80.80
25440;DHT22;13365;52.208;5.488;2022-11-20T05:31:16;1.90;80.60
25440;DHT22;13365;52.208;5.488;2022-11-20T05:33:43;1.90;80.80
25440;DHT22;13365;52.208;5.488;2022-11-20T05:36:10;1.80;80.90
25440;DHT22;13365;52.208;5.488;2022-11-20T05:38:36;1.60;80.90
25440;DHT22;13365;52.208;5.488;2022-11-20T05:41:08;1.30;81.10
25440;DHT22;13365;52.208;5.488;2022-11-20T05:43:35;1.40;82.00
25440;DHT22;13365;52.208;5.488;2022-11-20T05:46:04;1.60;81.80
25440;DHT22;13365;52.208;5.488;2022-11-20T05:48:30;1.60;81.10
25440;DHT22;13365;52.208;5.488;2022-11-20T05:51:00;1.70;81.20
25440;DHT22;13365;52.208;5.488;2022-11-20T05:53:26;1.70;80.90
25440;DHT22;13365;52.208;5.488;2022-11-20T05:56:06;1.70;80.60
25440;DHT22;13365;52.208;5.488;2022-11-20T05:58:32;1.60;80.20
25440;DHT22;13365;52.208;5.488;2022-11-20T06:03:38;1.50;80.00
25440;DHT22;13365;52.208;5.488;2022-11-20T06:06:05;1.60;80.40
25440;DHT22;13365;52.208;5.488;2022-11-20T06:08:31;1.60;80.30
25440;DHT22;13365;52.208;5.488;2022-11-20T06:10:57;1.60;80.10
25440;DHT22;13365;52.208;5.488;2022-11-20T06:13:23;1.60;80.00
25440;DHT22;13365;52.208;5.488;2022-11-20T06:15:52;1.60;80.10
25440;DHT22;13365;52.208;5.488;2022-11-20T06:18:19;1.60;80.10
25440;DHT22;13365;52.208;5.488;2022-11-20T06:20:45;1.70;80.00
25440;DHT22;13365;52.208;5.488;2022-11-20T06:23:12;1.70;79.70
25440;DHT22;13365;52.208;5.488;2022-11-20T06:25:39;1.70;79.60
25440;DHT22;13365;52.208;5.488;2022-11-20T06:28:05;1.70;79.50
25440;DHT22;13365;52.208;5.488;2022-11-20T06:30:30;1.70;79.50
25440;DHT22;13365;52.208;5.488;2022-11-20T06:32:56;1.70;80.40
25440;DHT22;13365;52.208;5.488;2022-11-20T06:35:21;1.70;79.30
25440;DHT22;13365;52.208;5.488;2022-11-20T06:37:47;1.50;79.40
25440;DHT22;13365;52.208;5.488;2022-11-20T06:40:12;1.60;79.90
25440;DHT22;13365;52.208;5.488;2022-11-20T06:42:38;1.60;79.80
25440;DHT22;13365;52.208;5.488;2022-11-20T06:45:04;1.70;79.70
25440;DHT22;13365;52.208;5.488;2022-11-20T06:47:29;1.60;79.70
25440;DHT22;13365;52.208;5.488;2022-11-20T06:49:55;1.60;79.60
25440;DHT22;13365;52.208;5.488;2022-11-20T06:52:20;1.70;79.70
25440;DHT22;13365;52.208;5.488;2022-11-20T06:54:46;1.70;79.60
25440;DHT22;13365;52.208;5.488;2022-11-20T06:57:11;1.50;79.30
25440;DHT22;13365;52.208;5.488;2022-11-20T06:59:37;1.60;79.80
25440;DHT22;13365;52.208;5.488;2022-11-20T07:02:02;1.70;80.00
25440;DHT22;13365;52.208;5.488;2022-11-20T07:04:28;1.60;80.20
25440;DHT22;13365;52.208;5.488;2022-11-20T07:06:53;1.70;80.20
25440;DHT22;13365;52.208;5.488;2022-11-20T07:09:19;1.90;80.10
25440;DHT22;13365;52.208;5.488;2022-11-20T07:11:44;1.70;80.10
25440;DHT22;13365;52.208;5.488;2022-11-20T07:14:10;1.60;80.40
25440;DHT22;13365;52.208;5.488;2022-11-20T07:16:35;1.60;80.70
25440;DHT22;13365;52.208;5.488;2022-11-20T07:19:01;1.60;80.90
25440;DHT22;13365;52.208;5.488;2022-11-20T07:21:26;1.60;81.00
25440;DHT22;13365;52.208;5.488;2022-11-20T07:23:52;1.60;81.10
25440;DHT22;13365;52.208;5.488;2022-11-20T07:26:17;1.70;81.40
25440;DHT22;13365;52.208;5.488;2022-11-20T07:28:46;1.80;81.40
25440;DHT22;13365;52.208;5.488;2022-11-20T07:31:12;1.80;81.30
25440;DHT22;13365;52.208;5.488;2022-11-20T07:33:38;1.80;81.30
25440;DHT22;13365;52.208;5.488;2022-11-20T07:36:04;1.90;81.50
25440;DHT22;13365;52.208;5.488;2022-11-20T07:38:30;2.00;81.60
25440;DHT22;13365;52.208;5.488;2022-11-20T07:40:56;2.10;81.60
25440;DHT22;13365;52.208;5.488;2022-11-20T07:43:23;2.10;81.60
25440;DHT22;13365;52.208;5.488;2022-11-20T07:45:48;2.10;81.70
25440;DHT22;13365;52.208;5.488;2022-11-20T07:48:14;2.20;81.90
25440;DHT22;13365;52.208;5.488;2022-11-20T07:50:39;2.30;82.00
25440;DHT22;13365;52.208;5.488;2022-11-20T07:53:05;2.40;82.50
25440;DHT22;13365;52.208;5.488;2022-11-20T07:55:31;2.50;82.80
25440;DHT22;13365;52.208;5.488;2022-11-20T07:57:57;2.60;82.90
25440;DHT22;13365;52.208;5.488;2022-11-20T08:00:24;2.70;83.00
25440;DHT22;13365;52.208;5.488;2022-11-20T08:02:50;2.70;82.90
25440;DHT22;13365;52.208;5.488;2022-11-20T08:05:15;3.00;82.90
25440;DHT22;13365;52.208;5.488;2022-11-20T08:07:42;3.00;82.80
25440;DHT22;13365;52.208;5.488;2022-11-20T08:10:10;3.10;82.90
25440;DHT22;13365;52.208;5.488;2022-11-20T08:12:48;3.10;82.90
25440;DHT22;13365;52.208;5.488;2022-11-20T08:15:33;3.20;82.60
25440;DHT22;13365;52.208;5.488;2022-11-20T08:18:06;3.20;83.00
25440;DHT22;13365;52.208;5.488;2022-11-20T08:20:32;3.30;83.30
25440;DHT22;13365;52.208;5.488;2022-11-20T08:23:03;3.30;83.10
25440;DHT22;13365;52.208;5.488;2022-11-20T08:25:29;3.40;83.40
25440;DHT22;13365;52.208;5.488;2022-11-20T08:27:57;3.50;83.80
25440;DHT22;13365;52.208;5.488;2022-11-20T08:30:23;3.60;83.80
25440;DHT22;13365;52.208;5.488;2022-11-20T08:32:49;3.70;84.00
25440;DHT22;13365;52.208;5.488;2022-11-20T08:35:14;3.70;84.00
25440;DHT22;13365;52.208;5.488;2022-11-20T08:37:40;3.90;84.20
25440;DHT22;13365;52.208;5.488;2022-11-20T08:40:09;4.00;84.20
25440;DHT22;13365;52.208;5.488;2022-11-20T08:42:34;4.10;84.40
25440;DHT22;13365;52.208;5.488;2022-11-20T08:45:00;4.20;84.30
25440;DHT22;13365;52.208;5.488;2022-11-20T08:47:28;4.30;84.30
25440;DHT22;13365;52.208;5.488;2022-11-20T08:49:54;4.30;84.20
25440;DHT22;13365;52.208;5.488;2022-11-20T08:52:20;4.30;84.20
25440;DHT22;13365;52.208;5.488;2022-11-20T08:54:45;4.30;84.50
25440;DHT22;13365;52.208;5.488;2022-11-20T08:57:11;4.20;84.70
25440;DHT22;13365;52.208;5.488;2022-11-20T08:59:37;4.40;85.40
25440;DHT22;13365;52.208;5.488;2022-11-20T09:02:02;4.40;85.40
25440;DHT22;13365;52.208;5.488;2022-11-20T09:04:28;4.50;85.40
25440;DHT22;13365;52.208;5.488;2022-11-20T09:06:53;4.60;85.50
25440;DHT22;13365;52.208;5.488;2022-11-20T09:09:20;4.70;85.20
25440;DHT22;13365;52.208;5.488;2022-11-20T09:11:48;4.80;85.50
25440;DHT22;13365;52.208;5.488;2022-11-20T09:14:15;4.90;85.00
25440;DHT22;13365;52.208;5.488;2022-11-20T09:16:40;5.00;85.00
25440;DHT22;13365;52.208;5.488;2022-11-20T09:19:06;5.10;85.10
25440;DHT22;13365;52.208;5.488;2022-11-20T09:21:31;5.10;85.40
25440;DHT22;13365;52.208;5.488;2022-11-20T09:23:57;5.10;85.70
25440;DHT22;13365;52.208;5.488;2022-11-20T09:26:22;5.40;85.60
25440;DHT22;13365;52.208;5.488;2022-11-20T09:28:48;5.40;85.40
25440;DHT22;13365;52.208;5.488;2022-11-20T09:31:23;5.40;85.60
25440;DHT22;13365;52.208;5.488;2022-11-20T09:33:49;5.40;85.90
25440;DHT22;13365;52.208;5.488;2022-11-20T09:36:15;5.30;86.10
25440;DHT22;13365;52.208;5.488;2022-11-20T09:38:42;5.20;86.60
25440;DHT22;13365;52.208;5.488;2022-11-20T09:47:56;5.00;87.20
25440;DHT22;13365;52.208;5.488;2022-11-20T09:53:29;5.30;87.30
25440;DHT22;13365;52.208;5.488;2022-11-20T09:56:01;5.30;87.70
25440;DHT22;13365;52.208;5.488;2022-11-20T10:00:57;5.80;87.30
25440;DHT22;13365;52.208;5.488;2022-11-20T10:06:05;5.70;87.80
25440;DHT22;13365;52.208;5.488;2022-11-20T10:09:18;5.80;87.00
25440;DHT22;13365;52.208;5.488;2022-11-20T10:12:09;5.90;87.10
25440;DHT22;13365;52.208;5.488;2022-11-20T10:17:46;6.00;87.10
25440;DHT22;13365;52.208;5.488;2022-11-20T10:20:58;6.10;87.10
25440;DHT22;13365;52.208;5.488;2022-11-20T10:25:51;6.30;86.40
25440;DHT22;13365;52.208;5.488;2022-11-20T10:28:28;6.40;86.60
25440;DHT22;13365;52.208;5.488;2022-11-20T10:31:00;6.50;86.60
25440;DHT22;13365;52.208;5.488;2022-11-20T10:33:31;6.70;86.70
25440;DHT22;13365;52.208;5.488;2022-11-20T10:36:21;6.70;86.30
25440;DHT22;13365;52.208;5.488;2022-11-20T10:38:54;6.80;86.90
25440;DHT22;13365;52.208;5.488;2022-11-20T10:41:27;6.90;86.30
25440;DHT22;13365;52.208;5.488;2022-11-20T10:44:17;7.00;86.20
25440;DHT22;13365;52.208;5.488;2022-11-20T10:47:19;7.20;85.80
25440;DHT22;13365;52.208;5.488;2022-11-20T10:49:49;7.10;86.20
25440;DHT22;13365;52.208;5.488;2022-11-20T10:55:38;7.20;86.00
25440;DHT22;13365;52.208;5.488;2022-11-20T11:01:16;7.50;86.30
25440;DHT22;13365;52.208;5.488;2022-11-20T11:03:43;7.60;85.90
25440;DHT22;13365;52.208;5.488;2022-11-20T11:06:17;7.70;86.00
25440;DHT22;13365;52.208;5.488;2022-11-20T11:08:47;7.80;86.40
25440;DHT22;13365;52.208;5.488;2022-11-20T11:11:43;8.00;85.80
25440;DHT22;13365;52.208;5.488;2022-11-20T11:14:12;8.00;85.50
25440;DHT22;13365;52.208;5.488;2022-11-20T11:16:56;8.10;85.80
25440;DHT22;13365;52.208;5.488;2022-11-20T11:19:22;8.10;85.90
25440;DHT22;13365;52.208;5.488;2022-11-20T11:21:53;8.10;85.90
25440;DHT22;13365;52.208;5.488;2022-11-20T11:24:28;8.30;86.10
25440;DHT22;13365;52.208;5.488;2022-11-20T11:26:57;8.50;86.20
25440;DHT22;13365;52.208;5.488;2022-11-20T11:29:23;8.60;85.60
25440;DHT22;13365;52.208;5.488;2022-11-20T11:32:17;8.60;85.30
25440;DHT22;13365;52.208;5.488;2022-11-20T11:34:43;8.60;85.60
25440;DHT22;13365;52.208;5.488;2022-11-20T11:37:19;8.60;86.00
25440;DHT22;13365;52.208;5.488;2022-11-20T11:39:47;8.60;86.20
25440;DHT22;13365;52.208;5.488;2022-11-20T11:42:16;8.50;87.60
25440;DHT22;13365;52.208;5.488;2022-11-20T11:44:47;8.60;86.70
25440;DHT22;13365;52.208;5.488;2022-11-20T11:53:08;8.80;87.20
25440;DHT22;13365;52.208;5.488;2022-11-20T11:56:03;8.80;86.90
25440;DHT22;13365;52.208;5.488;2022-11-20T11:58:47;8.70;87.00
25440;DHT22;13365;52.208;5.488;2022-11-20T12:06:45;8.70;87.90
25440;DHT22;13365;52.208;5.488;2022-11-20T12:09:13;8.60;87.80
25440;DHT22;13365;52.208;5.488;2022-11-20T12:12:02;8.60;88.30
25440;DHT22;13365;52.208;5.488;2022-11-20T12:14:37;8.70;88.80
25440;DHT22;13365;52.208;5.488;2022-11-20T12:17:03;8.80;88.40
25440;DHT22;13365;52.208;5.488;2022-11-20T12:19:34;8.90;88.60
25440;DHT22;13365;52.208;5.488;2022-11-20T12:24:54;8.90;88.20
25440;DHT22;13365;52.208;5.488;2022-11-20T12:30:12;8.90;88.70
25440;DHT22;13365;52.208;5.488;2022-11-20T12:52:48;8.80;90.30
25440;DHT22;13365;52.208;5.488;2022-11-20T12:55:21;8.70;90.30
25440;DHT22;13365;52.208;5.488;2022-11-20T12:57:53;8.60;90.30
25440;DHT22;13365;52.208;5.488;2022-11-20T13:00:22;8.70;90.50
25440;DHT22;13365;52.208;5.488;2022-11-20T13:03:16;8.70;90.70
25440;DHT22;13365;52.208;5.488;2022-11-20T13:06:12;8.80;90.70
25440;DHT22;13365;52.208;5.488;2022-11-20T13:08:40;8.80;90.60
25440;DHT22;13365;52.208;5.488;2022-11-20T13:11:40;8.60;90.80
25440;DHT22;13365;52.208;5.488;2022-11-20T13:14:40;8.30;91.30
25440;DHT22;13365;52.208;5.488;2022-11-20T13:19:55;8.20;92.30
25440;DHT22;13365;52.208;5.488;2022-11-20T13:22:42;8.20;92.40
25440;DHT22;13365;52.208;5.488;2022-11-20T13:25:28;8.30;92.40
25440;DHT22;13365;52.208;5.488;2022-11-20T13:27:55;8.40;92.10
25440;DHT22;13365;52.208;5.488;2022-11-20T13:30:26;8.40;92.20
25440;DHT22;13365;52.208;5.488;2022-11-20T13:33:28;8.50;92.00
25440;DHT22;13365;52.208;5.488;2022-11-20T13:36:22;8.40;92.10
25440;DHT22;13365;52.208;5.488;2022-11-20T13:38:50;8.40;92.00
25440;DHT22;13365;52.208;5.488;2022-11-20T13:41:32;8.60;91.90
25440;DHT22;13365;52.208;5.488;2022-11-20T13:44:13;8.70;91.80
25440;DHT22;13365;52.208;5.488;2022-11-20T13:46:44;8.80;91.50
25440;DHT22;13365;52.208;5.488;2022-11-20T13:49:18;8.70;91.40
25440;DHT22;13365;52.208;5.488;2022-11-20T13:51:51;8.80;91.80
25440;DHT22;13365;52.208;5.488;2022-11-20T13:54:44;8.60;91.40
25440;DHT22;13365;52.208;5.488;2022-11-20T13:57:27;8.40;91.60
25440;DHT22;13365;52.208;5.488;2022-11-20T14:02:40;8.20;92.30
25440;DHT22;13365;52.208;5.488;2022-11-20T14:05:22;8.10;92.50
25440;DHT22;13365;52.208;5.488;2022-11-20T14:07:49;8.10;92.80
25440;DHT22;13365;52.208;5.488;2022-11-20T14:10:27;8.30;92.80
25440;DHT22;13365;52.208;5.488;2022-11-20T14:12:53;8.50;92.50
25440;DHT22;13365;52.208;5.488;2022-11-20T14:15:32;8.50;92.30
25440;DHT22;13365;52.208;5.488;2022-11-20T14:17:59;8.60;92.10
25440;DHT22;13365;52.208;5.488;2022-11-20T14:20:27;8.50;92.00
25440;DHT22;13365;52.208;5.488;2022-11-20T14:22:55;8.40;92.20
25440;DHT22;13365;52.208;5.488;2022-11-20T14:25:25;8.30;92.50
25440;DHT22;13365;52.208;5.488;2022-11-20T14:27:57;8.10;92.90
25440;DHT22;13365;52.208;5.488;2022-11-20T14:30:26;8.30;93.10
25440;DHT22;13365;52.208;5.488;2022-11-20T14:32:56;8.30;93.00
25440;DHT22;13365;52.208;5.488;2022-11-20T14:35:28;8.40;92.80
25440;DHT22;13365;52.208;5.488;2022-11-20T14:37:55;8.20;92.80
25440;DHT22;13365;52.208;5.488;2022-11-20T14:40:34;8.20;93.10
25440;DHT22;13365;52.208;5.488;2022-11-20T14:43:01;8.00;93.50
25440;DHT22;13365;52.208;5.488;2022-11-20T14:45:27;7.90;93.90
25440;DHT22;13365;52.208;5.488;2022-11-20T14:47:55;7.90;94.10
25440;DHT22;13365;52.208;5.488;2022-11-20T14:50:24;8.10;94.00
25440;DHT22;13365;52.208;5.488;2022-11-20T14:52:52;8.30;93.60
25440;DHT22;13365;52.208;5.488;2022-11-20T14:55:37;8.40;93.30
25440;DHT22;13365;52.208;5.488;2022-11-20T14:58:21;8.30;93.10
25440;DHT22;13365;52.208;5.488;2022-11-20T15:01:01;8.30;93.30
25440;DHT22;13365;52.208;5.488;2022-11-20T15:03:38;8.20;93.20
25440;DHT22;13365;52.208;5.488;2022-11-20T15:06:05;8.10;93.50
25440;DHT22;13365;52.208;5.488;2022-11-20T15:08:31;8.00;93.70
25440;DHT22;13365;52.208;5.488;2022-11-20T15:10:57;7.90;93.80
25440;DHT22;13365;52.208;5.488;2022-11-20T15:15:55;8.10;93.60
25440;DHT22;13365;52.208;5.488;2022-11-20T15:18:23;8.00;93.90
25440;DHT22;13365;52.208;5.488;2022-11-20T15:20:51;8.10;93.90
25440;DHT22;13365;52.208;5.488;2022-11-20T15:23:18;7.90;93.90
25440;DHT22;13365;52.208;5.488;2022-11-20T15:25:45;8.00;94.00
25440;DHT22;13365;52.208;5.488;2022-11-20T15:28:21;8.10;94.10
25440;DHT22;13365;52.208;5.488;2022-11-20T15:30:48;8.30;93.90
25440;DHT22;13365;52.208;5.488;2022-11-20T15:33:15;8.30;93.60
25440;DHT22;13365;52.208;5.488;2022-11-20T15:35:41;8.30;93.60
25440;DHT22;13365;52.208;5.488;2022-11-20T15:38:07;8.30;93.50
25440;DHT22;13365;52.208;5.488;2022-11-20T15:40:32;8.40;93.60
25440;DHT22;13365;52.208;5.488;2022-11-20T15:42:58;8.50;93.50
25440;DHT22;13365;52.208;5.488;2022-11-20T15:45:47;8.50;93.30
25440;DHT22;13365;52.208;5.488;2022-11-20T15:48:20;8.60;93.20
25440;DHT22;13365;52.208;5.488;2022-11-20T15:53:18;8.60;93.20
25440;DHT22;13365;52.208;5.488;2022-11-20T15:55:43;8.70;93.10
25440;DHT22;13365;52.208;5.488;2022-11-20T15:58:09;8.70;92.90
25440;DHT22;13365;52.208;5.488;2022-11-20T16:00:34;8.70;92.90
25440;DHT22;13365;52.208;5.488;2022-11-20T16:03:00;8.60;92.80
25440;DHT22;13365;52.208;5.488;2022-11-20T16:05:29;8.60;93.00
25440;DHT22;13365;52.208;5.488;2022-11-20T16:07:55;8.30;93.30
25440;DHT22;13365;52.208;5.488;2022-11-20T16:10:21;8.00;93.70
25440;DHT22;13365;52.208;5.488;2022-11-20T16:12:46;7.60;94.40
25440;DHT22;13365;52.208;5.488;2022-11-20T16:15:31;7.80;94.70
25440;DHT22;13365;52.208;5.488;2022-11-20T16:18:14;7.80;94.80
25440;DHT22;13365;52.208;5.488;2022-11-20T16:20:43;7.60;95.20
25440;DHT22;13365;52.208;5.488;2022-11-20T16:23:08;7.60;95.40
25440;DHT22;13365;52.208;5.488;2022-11-20T16:25:34;7.60;95.60
25440;DHT22;13365;52.208;5.488;2022-11-20T16:27:59;7.50;95.90
25440;DHT22;13365;52.208;5.488;2022-11-20T16:30:26;7.40;96.10
25440;DHT22;13365;52.208;5.488;2022-11-20T16:32:51;7.40;96.20
25440;DHT22;13365;52.208;5.488;2022-11-20T16:35:17;7.40;96.60
25440;DHT22;13365;52.208;5.488;2022-11-20T16:37:42;7.30;96.60
25440;DHT22;13365;52.208;5.488;2022-11-20T16:40:09;7.40;96.70
25440;DHT22;13365;52.208;5.488;2022-11-20T16:42:36;7.40;96.70
25440;DHT22;13365;52.208;5.488;2022-11-20T16:45:03;7.30;97.00
25440;DHT22;13365;52.208;5.488;2022-11-20T16:47:35;7.10;97.30
25440;DHT22;13365;52.208;5.488;2022-11-20T16:50:02;7.30;97.30
25440;DHT22;13365;52.208;5.488;2022-11-20T16:52:29;7.30;97.10
25440;DHT22;13365;52.208;5.488;2022-11-20T16:54:55;7.40;97.20
25440;DHT22;13365;52.208;5.488;2022-11-20T16:57:21;7.50;97.10
25440;DHT22;13365;52.208;5.488;2022-11-20T16:59:47;7.40;97.00
25440;DHT22;13365;52.208;5.488;2022-11-20T17:02:13;7.10;97.20
25440;DHT22;13365;52.208;5.488;2022-11-20T17:04:38;6.90;97.70
25440;DHT22;13365;52.208;5.488;2022-11-20T17:07:05;6.80;98.30
25440;DHT22;13365;52.208;5.488;2022-11-20T17:09:31;6.90;98.60
25440;DHT22;13365;52.208;5.488;2022-11-20T17:11:56;6.90;98.40
25440;DHT22;13365;52.208;5.488;2022-11-20T17:14:22;6.90;98.20
25440;DHT22;13365;52.208;5.488;2022-11-20T17:16:47;6.60;99.00
25440;DHT22;13365;52.208;5.488;2022-11-20T17:19:13;6.50;99.40